Time;durP1;ratioP1;P1;durP2;ratioP2;P2;SDS_P1;SDS_P2;PMS_P1;PMS_P2;Temp;Humidity;BMP_temperature;BMP_pressure;BME280_temperature;BME280_humidity;BME280_pressure;Samples;Min_cycle;Max_cycle;Signal;HPM_P1;HPM_P2
2021/12/26 00:01:00;;;;;;;8.80;7.33;;;;;21.50;99748.00;;;;2086240;28;20212;-47
2021/12/26 00:02:00;;;;;;;8.90;8.00;;;;;21.50;99743.00;;;;2087154;28;20217;-47
2021/12/26 00:03:00;;;;;;;8.23;7.43;;;;;21.50;99749.00;;;;2087275;28;20232;-47
2021/12/26 00:04:03;;;;;;;8.67;7.77;;;;;21.50;99742.00;;;;2086256;28;20572;-47
2021/12/26 00:05:04;;;;;;;8.93;7.32;;;;;21.50;99738.00;;;;2087376;28;20224;-47
2021/12/26 00:06:06;;;;;;;7.95;7.15;;;;;21.40;99745.00;;;;2086508;28;20244;-47
2021/12/26 00:07:07;;;;;;;8.60;7.25;;;;;21.40;99748.00;;;;2086763;28;20209;-47
2021/12/26 00:08:07;;;;;;;7.20;6.30;;;;;21.40;99749.00;;;;2087645;28;20219;-47
2021/12/26 00:09:08;;;;;;;8.10;6.53;;;;;21.40;99750.00;;;;2087590;28;20312;-47
2021/12/26 00:10:09;;;;;;;7.20;6.13;;;;;21.40;99751.00;;;;2087784;28;20228;-47
2021/12/26 00:11:10;;;;;;;8.43;6.75;;;;;21.40;99746.00;;;;2087020;28;20220;-47
2021/12/26 00:12:11;;;;;;;7.28;6.50;;;;;21.40;99747.00;;;;2087134;28;20314;-47
2021/12/26 00:13:11;;;;;;;7.30;6.03;;;;;21.40;99742.00;;;;2078935;28;20690;-47
2021/12/26 00:14:12;;;;;;;7.30;6.60;;;;;21.40;99748.00;;;;2079039;28;20847;-47
2021/12/26 00:15:12;;;;;;;6.40;5.80;;;;;21.40;99751.00;;;;2084380;28;20401;-51
2021/12/26 00:16:13;;;;;;;6.50;5.80;;;;;21.40;99738.00;;;;2078968;28;20276;-51
2021/12/26 00:17:13;;;;;;;6.87;5.87;;;;;21.40;99745.00;;;;2078255;28;20236;-48
2021/12/26 00:18:13;;;;;;;7.20;6.23;;;;;21.40;99746.00;;;;2078363;28;20300;-48
2021/12/26 00:19:14;;;;;;;6.20;5.60;;;;;21.30;99742.00;;;;2078895;28;20300;-47
2021/12/26 00:20:14;;;;;;;6.57;5.97;;;;;21.20;99746.00;;;;2078058;28;20208;-47
2021/12/26 00:21:15;;;;;;;7.00;5.63;;;;;21.30;99738.00;;;;2077994;28;20204;-48
2021/12/26 00:22:16;;;;;;;6.75;6.05;;;;;21.30;99736.00;;;;2079537;28;20206;-47
2021/12/26 00:23:16;;;;;;;6.77;5.40;;;;;21.30;99736.00;;;;2070089;28;20229;-48
2021/12/26 00:24:17;;;;;;;6.00;5.40;;;;;21.30;99726.00;;;;2078313;28;20578;-47
2021/12/26 00:25:17;;;;;;;6.53;5.03;;;;;21.30;99734.00;;;;2070890;28;20210;-47
2021/12/26 00:26:17;;;;;;;6.80;5.07;;;;;21.30;99728.00;;;;2078431;28;20640;-47
2021/12/26 00:27:19;;;;;;;6.20;5.60;;;;;21.30;99725.00;;;;2078007;28;20217;-47
2021/12/26 00:28:19;;;;;;;6.07;5.20;;;;;21.30;99730.00;;;;2084105;28;20577;-48
2021/12/26 00:29:19;;;;;;;5.23;4.73;;;;;21.30;99728.00;;;;2087622;28;20205;-46
2021/12/26 00:30:20;;;;;;;5.97;4.80;;;;;21.30;99732.00;;;;2087246;28;20219;-47
2021/12/26 00:31:20;;;;;;;6.10;4.90;;;;;21.20;99731.00;;;;2086756;28;20752;-47
2021/12/26 00:32:21;;;;;;;5.90;5.30;;;;;21.20;99726.00;;;;2085085;28;20209;-47
2021/12/26 00:33:21;;;;;;;7.57;5.00;;;;;21.20;99729.00;;;;2087661;28;21013;-47
2021/12/26 00:34:21;;;;;;;5.60;4.40;;;;;21.20;99728.00;;;;2086961;28;20724;-47
2021/12/26 00:35:22;;;;;;;5.30;4.80;;;;;21.20;99731.00;;;;2086736;28;20710;-47
2021/12/26 00:36:22;;;;;;;5.30;4.33;;;;;21.20;99731.00;;;;2087192;28;20693;-46
2021/12/26 00:37:22;;;;;;;5.10;4.60;;;;;21.20;99725.00;;;;2085858;28;20715;-47
2021/12/26 00:38:23;;;;;;;5.40;4.63;;;;;21.20;99724.00;;;;2078319;28;20686;-47
2021/12/26 00:39:23;;;;;;;5.43;4.40;;;;;21.20;99723.00;;;;2086652;28;20751;-47
2021/12/26 00:40:24;;;;;;;5.10;4.57;;;;;21.20;99732.00;;;;2083830;28;20731;-46
2021/12/26 00:41:24;;;;;;;6.63;4.80;;;;;21.20;99725.00;;;;2086389;28;20682;-47
2021/12/26 00:42:24;;;;;;;4.93;4.47;;;;;21.10;99720.00;;;;2086353;28;20220;-47
2021/12/26 00:43:26;;;;;;;5.60;5.00;;;;;21.20;99722.00;;;;2086831;28;20346;-47
2021/12/26 00:44:26;;;;;;;5.22;4.72;;;;;21.20;99714.00;;;;2087080;28;20221;-47
2021/12/26 00:45:27;;;;;;;5.10;4.57;;;;;21.10;99722.00;;;;2086706;28;20212;-47
2021/12/26 00:46:27;;;;;;;5.37;4.27;;;;;21.10;99722.00;;;;2086638;28;20705;-47
2021/12/26 00:47:29;;;;;;;4.90;4.30;;;;;21.10;99717.00;;;;2086863;28;20217;-47
2021/12/26 00:48:30;;;;;;;4.65;4.07;;;;;21.10;99716.00;;;;2087095;28;20334;-46
2021/12/26 00:49:30;;;;;;;5.10;4.40;;;;;21.10;99711.00;;;;2086851;28;20232;-47
2021/12/26 00:50:31;;;;;;;4.87;3.90;;;;;21.10;99714.00;;;;2075840;28;20213;-47
2021/12/26 00:51:32;;;;;;;4.83;4.20;;;;;21.20;99722.00;;;;2078537;28;20244;-47
2021/12/26 00:52:32;;;;;;;5.63;4.33;;;;;21.10;99723.00;;;;2078892;28;20471;-47
2021/12/26 00:53:33;;;;;;;5.10;3.43;;;;;21.10;99714.00;;;;2079484;28;20210;-47
2021/12/26 00:54:33;;;;;;;5.50;4.07;;;;;21.10;99711.00;;;;2079088;28;20216;-46
2021/12/26 00:55:34;;;;;;;4.40;4.00;;;;;21.10;99710.00;;;;2079062;28;20220;-47
2021/12/26 00:56:34;;;;;;;5.33;4.10;;;;;21.10;99702.00;;;;2078985;28;20729;-47
2021/12/26 00:57:35;;;;;;;4.10;3.47;;;;;21.00;99709.00;;;;2079098;28;20669;-47
2021/12/26 00:58:35;;;;;;;4.30;3.90;;;;;21.10;99708.00;;;;2078229;28;20600;-47
2021/12/26 00:59:35;;;;;;;3.90;3.57;;;;;21.10;99704.00;;;;2078003;28;20698;-47
2021/12/26 01:00:41;;;;;;;3.50;3.20;;;;;21.00;99712.00;;;;2077724;28;20209;-47
2021/12/26 01:01:41;;;;;;;5.25;3.70;;;;;21.00;99697.00;;;;2078807;28;20580;-47
2021/12/26 01:02:43;;;;;;;3.73;3.43;;;;;21.00;99700.00;;;;2078422;28;20686;-47
2021/12/26 01:03:43;;;;;;;4.10;3.70;;;;;21.00;99704.00;;;;2078656;28;20210;-46
2021/12/26 01:04:43;;;;;;;3.40;3.10;;;;;21.00;99697.00;;;;2078423;28;20681;-47
2021/12/26 01:05:46;;;;;;;3.73;3.27;;;;;21.00;99701.00;;;;2085324;28;20709;-47
2021/12/26 01:06:46;;;;;;;5.28;3.97;;;;;21.00;99690.00;;;;2087867;28;20217;-46
2021/12/26 01:08:56;;;;;;;4.15;3.45;;;;;21.00;99701.00;;;;2087214;28;20217;-46
2021/12/26 01:09:56;;;;;;;4.00;3.60;;;;;21.00;99697.00;;;;2086109;28;20227;-47
2021/12/26 01:11:06;;;;;;;3.43;3.13;;;;;21.00;99696.00;;;;2086585;28;20652;-46
2021/12/26 01:12:13;;;;;;;3.80;3.38;;;;;21.00;99704.00;;;;2087510;28;20580;-46
2021/12/26 01:13:27;;;;;;;3.28;2.97;;;;;21.00;99706.00;;;;2087494;28;20588;-46
2021/12/26 01:14:30;;;;;;;4.20;3.50;;;;;20.90;99705.00;;;;2086701;28;20204;-46
2021/12/26 01:15:30;;;;;;;3.80;3.50;;;;;21.00;99707.00;;;;2087501;28;20295;-47
2021/12/26 01:16:31;;;;;;;5.23;3.60;;;;;20.90;99699.00;;;;2087303;28;20220;-46
2021/12/26 01:17:32;;;;;;;4.80;3.17;;;;;20.80;99704.00;;;;2087506;28;20704;-46
2021/12/26 01:18:34;;;;;;;5.50;3.13;;;;;20.70;99702.00;;;;2087517;28;20245;-47
2021/12/26 01:19:43;;;;;;;3.65;3.35;;;;;20.80;99695.00;;;;2087570;28;20598;-46
2021/12/26 01:21:44;;;;;;;4.03;3.20;;;;;20.90;99703.00;;;;2087193;28;20236;-47
2021/12/26 01:22:44;;;;;;;4.23;3.47;;;;;20.90;99705.00;;;;2087494;28;20703;-47
2021/12/26 01:23:46;;;;;;;4.17;3.07;;;;;20.90;99696.00;;;;2087517;28;20217;-46
2021/12/26 01:24:48;;;;;;;4.25;3.05;;;;;20.90;99698.00;;;;2087090;28;20873;-47
2021/12/26 01:25:48;;;;;;;2.75;2.50;;;;;20.90;99701.00;;;;2086747;28;20241;-47
2021/12/26 01:26:49;;;;;;;3.77;3.07;;;;;20.80;99698.00;;;;2086497;28;20217;-47
2021/12/26 01:27:49;;;;;;;3.10;2.80;;;;;20.90;99701.00;;;;2087155;28;20239;-47
2021/12/26 01:28:49;;;;;;;3.30;3.00;;;;;21.00;99692.00;;;;2087398;28;20304;-47
2021/12/26 01:29:50;;;;;;;3.87;2.97;;;;;20.90;99688.00;;;;2087204;28;20231;-47
2021/12/26 01:30:50;;;;;;;3.37;3.07;;;;;21.00;99695.00;;;;2086195;28;20232;-47
2021/12/26 01:31:51;;;;;;;3.00;2.70;;;;;21.00;99697.00;;;;2087359;28;21012;-46
2021/12/26 01:32:51;;;;;;;3.03;2.73;;;;;20.90;99695.00;;;;2086296;28;20209;-47
2021/12/26 01:33:57;;;;;;;3.20;2.90;;;;;20.90;99687.00;;;;2086783;28;20263;-46
2021/12/26 01:34:57;;;;;;;3.55;3.25;;;;;20.90;99688.00;;;;2086676;28;20209;-47
2021/12/26 01:35:57;;;;;;;2.90;2.70;;;;;20.90;99690.00;;;;2085749;28;20814;-47
2021/12/26 01:36:58;;;;;;;3.67;3.27;;;;;20.90;99687.00;;;;2086109;28;20640;-47
2021/12/26 01:37:58;;;;;;;3.43;3.13;;;;;21.00;99692.00;;;;2087029;28;20244;-46
2021/12/26 01:39:00;;;;;;;3.50;3.20;;;;;21.00;99689.00;;;;2086987;28;20213;-46
2021/12/26 01:40:01;;;;;;;3.83;3.00;;;;;21.00;99691.00;;;;2086728;28;20220;-48
2021/12/26 01:41:08;;;;;;;3.53;3.23;;;;;20.90;99684.00;;;;2086056;28;20244;-48
2021/12/26 01:42:10;;;;;;;2.75;2.55;;;;;20.90;99685.00;;;;2086787;28;20355;-47
2021/12/26 01:43:11;;;;;;;3.47;3.17;;;;;20.90;99691.00;;;;2086875;28;20209;-46
2021/12/26 01:44:12;;;;;;;3.70;2.77;;;;;20.90;99684.00;;;;2086565;28;20588;-47
2021/12/26 01:45:13;;;;;;;4.78;3.03;;;;;20.90;99673.00;;;;2086871;28;20451;-47
2021/12/26 01:46:15;;;;;;;3.20;2.63;;;;;20.90;99684.00;;;;2086150;28;20227;-47
2021/12/26 01:47:15;;;;;;;4.28;3.45;;;;;20.90;99682.00;;;;2086493;28;20299;-47
2021/12/26 01:48:16;;;;;;;4.87;3.33;;;;;20.90;99681.00;;;;2087344;28;20266;-46
2021/12/26 01:49:21;;;;;;;3.80;2.97;;;;;20.90;99678.00;;;;2087438;28;20226;-47
2021/12/26 01:50:21;;;;;;;3.17;2.85;;;;;20.90;99684.00;;;;2086737;28;20259;-47
2021/12/26 01:51:22;;;;;;;3.57;2.80;;;;;20.90;99683.00;;;;2085462;28;20221;-47
2021/12/26 01:52:22;;;;;;;3.90;3.00;;;;;20.80;99674.00;;;;2087249;28;20217;-47
2021/12/26 01:53:24;;;;;;;3.53;2.43;;;;;20.90;99682.00;;;;2087082;28;20304;-47
2021/12/26 01:54:37;;;;;;;3.03;2.75;;;;;20.90;99686.00;;;;2086793;28;20299;-46
2021/12/26 01:55:41;;;;;;;2.78;2.58;;;;;20.90;99692.00;;;;2086936;28;20696;-47
2021/12/26 01:56:41;;;;;;;3.67;2.92;;;;;20.90;99673.00;;;;2086554;28;20229;-47
2021/12/26 01:57:42;;;;;;;4.30;2.73;;;;;20.90;99682.00;;;;2086741;28;20295;-46
2021/12/26 01:58:42;;;;;;;3.50;3.20;;;;;20.80;99684.00;;;;2087021;28;20763;-47
2021/12/26 01:59:43;;;;;;;3.83;2.53;;;;;20.90;99684.00;;;;2086927;28;20213;-47
2021/12/26 02:00:45;;;;;;;3.90;3.07;;;;;20.90;99687.00;;;;2086414;28;20304;-47
2021/12/26 02:01:46;;;;;;;3.85;2.75;;;;;20.90;99681.00;;;;2087033;28;20212;-46
2021/12/26 02:02:47;;;;;;;2.97;2.63;;;;;20.90;99682.00;;;;2086716;28;20219;-46
2021/12/26 02:03:47;;;;;;;3.55;2.60;;;;;20.80;99683.00;;;;2085647;28;20217;-46
2021/12/26 02:04:47;;;;;;;3.87;2.80;;;;;20.80;99688.00;;;;2077805;28;20682;-46
2021/12/26 02:05:48;;;;;;;5.77;2.70;;;;;20.80;99688.00;;;;2086287;28;21304;-46
2021/12/26 02:06:48;;;;;;;2.63;2.43;;;;;20.80;99683.00;;;;2086223;28;20780;-46
2021/12/26 02:07:49;;;;;;;3.80;2.40;;;;;20.80;99690.00;;;;2078496;28;21231;-46
2021/12/26 02:08:49;;;;;;;3.10;2.47;;;;;20.80;99680.00;;;;2078714;28;20336;-46
2021/12/26 02:09:50;;;;;;;2.60;2.37;;;;;20.80;99687.00;;;;2078656;28;20674;-46
2021/12/26 02:10:50;;;;;;;4.40;2.73;;;;;20.80;99684.00;;;;2077945;28;20271;-46
2021/12/26 02:11:50;;;;;;;6.20;2.50;;;;;20.80;99682.00;;;;2078869;28;20214;-46
2021/12/26 02:12:51;;;;;;;4.17;2.90;;;;;20.80;99681.00;;;;2084259;28;20257;-46
2021/12/26 02:13:51;;;;;;;3.30;2.43;;;;;20.80;99681.00;;;;2086959;28;20217;-46
2021/12/26 02:14:53;;;;;;;2.80;2.60;;;;;20.80;99686.00;;;;2082365;28;20240;-47
2021/12/26 02:15:53;;;;;;;3.97;2.35;;;;;20.80;99686.00;;;;2086781;28;20224;-46
2021/12/26 02:16:54;;;;;;;3.87;2.70;;;;;20.80;99688.00;;;;2087136;28;20220;-47
2021/12/26 02:17:54;;;;;;;2.90;2.60;;;;;20.80;99674.00;;;;2087127;28;20213;-46
2021/12/26 02:18:54;;;;;;;2.87;2.60;;;;;20.80;99677.00;;;;2086977;28;20550;-46
2021/12/26 02:20:16;;;;;;;3.00;2.50;;;;;20.60;99682.00;;;;2087153;28;20220;-47
2021/12/26 02:22:38;;;;;;;3.55;2.70;;;;;20.70;99678.00;;;;2086251;28;20220;-47
2021/12/26 02:24:05;;;;;;;2.38;2.17;;;;;20.70;99671.00;;;;2086989;28;20212;-46
2021/12/26 02:27:33;;;;;;;2.88;2.20;;;;;20.70;99680.00;;;;2086527;28;20205;-46
2021/12/26 02:28:34;;;;;;;4.38;2.47;;;;;20.70;99677.00;;;;2085891;28;20771;-47
2021/12/26 02:29:34;;;;;;;2.70;2.50;;;;;20.70;99669.00;;;;2086714;28;20240;-46
2021/12/26 02:30:35;;;;;;;2.30;2.03;;;;;20.70;99672.00;;;;2085762;28;20860;-47
2021/12/26 02:31:35;;;;;;;2.70;2.10;;;;;20.70;99679.00;;;;2086361;28;20270;-47
2021/12/26 02:32:35;;;;;;;2.93;2.50;;;;;20.60;99681.00;;;;2084199;28;20208;-47
2021/12/26 02:33:36;;;;;;;2.97;2.40;;;;;20.70;99674.00;;;;2086589;28;20209;-47
2021/12/26 02:34:36;;;;;;;3.03;2.70;;;;;20.60;99676.00;;;;2086690;28;20221;-47
2021/12/26 02:35:38;;;;;;;4.13;2.53;;;;;20.60;99676.00;;;;2086504;28;20363;-47
2021/12/26 02:36:38;;;;;;;3.67;2.30;;;;;20.60;99673.00;;;;2086385;28;20296;-46
2021/12/26 02:37:38;;;;;;;3.20;2.43;;;;;20.60;99674.00;;;;2086464;28;20219;-47
2021/12/26 02:38:39;;;;;;;2.70;2.20;;;;;20.60;99669.00;;;;2086165;28;20240;-47
2021/12/26 02:39:39;;;;;;;3.10;2.40;;;;;20.70;99676.00;;;;2086556;28;20213;-46
2021/12/26 02:40:40;;;;;;;2.50;2.30;;;;;20.60;99662.00;;;;2085141;28;20217;-48
2021/12/26 02:41:41;;;;;;;2.83;2.40;;;;;20.60;99665.00;;;;2086572;28;20216;-47
2021/12/26 02:42:41;;;;;;;2.90;2.00;;;;;20.60;99671.00;;;;2084069;28;20204;-46
2021/12/26 02:43:41;;;;;;;3.40;2.53;;;;;20.60;99669.00;;;;2086404;28;20693;-47
2021/12/26 02:44:42;;;;;;;2.53;2.33;;;;;20.60;99664.00;;;;2086207;28;20689;-46
2021/12/26 02:45:42;;;;;;;4.57;3.03;;;;;20.60;99666.00;;;;2081176;28;20725;-46
2021/12/26 02:46:42;;;;;;;2.43;2.23;;;;;20.60;99662.00;;;;2078278;28;20796;-47
2021/12/26 02:47:46;;;;;;;2.97;2.43;;;;;20.60;99657.00;;;;2078200;28;20263;-46
2021/12/26 02:48:47;;;;;;;2.25;2.05;;;;;20.60;99667.00;;;;2083225;28;20201;-47
2021/12/26 02:49:48;;;;;;;3.60;2.07;;;;;20.60;99666.00;;;;2085886;28;20600;-46
2021/12/26 02:50:52;;;;;;;2.35;2.15;;;;;20.60;99663.00;;;;2084693;28;20615;-47
2021/12/26 02:51:53;;;;;;;2.50;2.17;;;;;20.60;99664.00;;;;2086433;28;20220;-47
2021/12/26 02:52:54;;;;;;;2.33;2.13;;;;;20.60;99663.00;;;;2083770;28;20219;-46
2021/12/26 02:53:54;;;;;;;2.30;2.10;;;;;20.60;99662.00;;;;2086169;28;20338;-46
2021/12/26 02:54:55;;;;;;;2.27;2.03;;;;;20.60;99657.00;;;;2086833;28;20495;-46
2021/12/26 02:55:57;;;;;;;2.53;2.13;;;;;20.60;99661.00;;;;2077804;28;20208;-47
2021/12/26 02:56:58;;;;;;;2.70;2.50;;;;;20.60;99654.00;;;;2078237;28;20257;-46
2021/12/26 02:58:07;;;;;;;2.50;2.30;;;;;20.60;99664.00;;;;2086573;28;20216;-46
2021/12/26 02:59:07;;;;;;;4.80;2.45;;;;;20.50;99655.00;;;;2086932;28;20212;-47
2021/12/26 03:00:12;;;;;;;2.13;1.90;;;;;20.60;99649.00;;;;2085891;28;20767;-51
2021/12/26 03:01:15;;;;;;;2.42;2.22;;;;;20.60;99650.00;;;;2086047;28;20209;-47
2021/12/26 03:02:16;;;;;;;2.45;2.25;;;;;20.60;99652.00;;;;2083319;28;20287;-46
2021/12/26 03:03:16;;;;;;;2.60;2.40;;;;;20.50;99647.00;;;;2086842;28;20201;-47
2021/12/26 03:04:17;;;;;;;2.33;2.13;;;;;20.50;99656.00;;;;2085913;28;20283;-46
2021/12/26 03:05:17;;;;;;;2.30;2.10;;;;;20.50;99660.00;;;;2086715;28;20719;-47
2021/12/26 03:06:36;;;;;;;2.23;2.10;;;;;20.50;99658.00;;;;2087695;28;20217;-46
2021/12/26 03:07:37;;;;;;;2.30;2.00;;;;;20.50;99663.00;;;;2088336;28;20216;-46
2021/12/26 03:08:37;;;;;;;2.50;2.30;;;;;20.50;99654.00;;;;2087983;28;20205;-46
2021/12/26 03:09:45;;;;;;;2.10;1.83;;;;;20.50;99658.00;;;;2088629;28;20292;-46
2021/12/26 03:10:45;;;;;;;2.53;2.30;;;;;20.50;99661.00;;;;2087374;28;20217;-47
2021/12/26 03:11:47;;;;;;;2.50;2.30;;;;;20.50;99663.00;;;;2086230;28;20208;-47
2021/12/26 03:12:51;;;;;;;2.92;2.60;;;;;20.50;99662.00;;;;2080073;28;20772;-47
2021/12/26 03:13:52;;;;;;;3.03;2.47;;;;;20.50;99665.00;;;;2084897;28;20220;-46
2021/12/26 03:14:52;;;;;;;2.30;2.10;;;;;20.50;99667.00;;;;2088384;28;20240;-46
2021/12/26 03:15:52;;;;;;;2.87;2.30;;;;;20.50;99656.00;;;;2082222;28;20217;-46
2021/12/26 03:16:53;;;;;;;2.10;1.90;;;;;20.50;99655.00;;;;2087018;28;20740;-46
2021/12/26 03:17:53;;;;;;;3.10;2.37;;;;;20.50;99658.00;;;;2087957;28;20328;-46
2021/12/26 03:18:57;;;;;;;3.23;2.23;;;;;20.50;99657.00;;;;2083876;28;20554;-46
2021/12/26 03:19:58;;;;;;;2.60;2.00;;;;;20.50;99656.00;;;;2080147;28;20213;-46
2021/12/26 03:20:58;;;;;;;3.10;2.20;;;;;20.50;99660.00;;;;2079314;28;20410;-47
2021/12/26 03:21:58;;;;;;;3.13;1.93;;;;;20.40;99662.00;;;;2080298;28;20225;-46
2021/12/26 03:23:00;;;;;;;2.83;2.57;;;;;20.40;99662.00;;;;2080295;28;20241;-46
2021/12/26 03:24:01;;;;;;;3.78;1.92;;;;;20.50;99665.00;;;;2080208;28;20573;-46
2021/12/26 03:25:01;;;;;;;2.50;2.30;;;;;20.50;99667.00;;;;2079908;28;20225;-46
2021/12/26 03:26:04;;;;;;;2.57;2.03;;;;;20.50;99667.00;;;;2080060;28;20230;-47
2021/12/26 03:27:04;;;;;;;3.08;2.00;;;;;20.50;99660.00;;;;2079713;28;20451;-47
2021/12/26 03:28:06;;;;;;;3.50;2.37;;;;;20.40;99662.00;;;;2080451;28;20737;-46
2021/12/26 03:29:06;;;;;;;3.15;2.30;;;;;20.40;99659.00;;;;2080194;28;20213;-46
2021/12/26 03:30:08;;;;;;;2.40;2.20;;;;;20.40;99659.00;;;;2080059;28;20287;-46
2021/12/26 03:31:08;;;;;;;2.35;1.95;;;;;20.40;99664.00;;;;2079241;28;20296;-47
2021/12/26 03:32:09;;;;;;;2.57;2.30;;;;;20.30;99659.00;;;;2079995;28;20214;-46
2021/12/26 03:33:10;;;;;;;2.50;2.10;;;;;20.40;99666.00;;;;2080269;28;20224;-46
2021/12/26 03:34:11;;;;;;;2.83;2.20;;;;;20.40;99658.00;;;;2079849;28;20459;-46
2021/12/26 03:35:11;;;;;;;2.37;2.17;;;;;20.40;99664.00;;;;2079896;28;20264;-46
2021/12/26 03:36:11;;;;;;;2.50;2.30;;;;;20.40;99657.00;;;;2080097;28;20209;-46
2021/12/26 03:37:12;;;;;;;2.30;2.10;;;;;20.40;99660.00;;;;2080185;28;20217;-46
2021/12/26 03:38:12;;;;;;;2.10;1.90;;;;;20.40;99664.00;;;;2080173;28;20213;-47
2021/12/26 03:39:13;;;;;;;2.60;2.30;;;;;20.40;99665.00;;;;2082794;28;20219;-47
2021/12/26 03:40:13;;;;;;;2.27;2.07;;;;;20.40;99668.00;;;;2087259;28;20567;-51
2021/12/26 03:41:14;;;;;;;2.23;1.93;;;;;20.40;99667.00;;;;2087047;28;20270;-50
2021/12/26 03:42:14;;;;;;;2.57;2.37;;;;;20.40;99658.00;;;;2088362;28;20212;-48
2021/12/26 03:43:14;;;;;;;2.40;2.20;;;;;20.40;99666.00;;;;2088162;28;20592;-48
2021/12/26 03:44:15;;;;;;;2.43;2.13;;;;;20.40;99660.00;;;;2087637;28;20208;-48
2021/12/26 03:45:16;;;;;;;3.05;1.95;;;;;20.40;99666.00;;;;2087116;28;20212;-46
2021/12/26 03:46:16;;;;;;;2.53;1.93;;;;;20.40;99666.00;;;;2087510;28;20295;-47
2021/12/26 03:47:17;;;;;;;2.23;2.03;;;;;20.30;99657.00;;;;2088258;28;20209;-47
2021/12/26 03:48:18;;;;;;;2.40;2.20;;;;;20.30;99656.00;;;;2088417;28;20758;-46
2021/12/26 03:49:18;;;;;;;2.10;1.90;;;;;20.30;99659.00;;;;2088481;28;20243;-46
2021/12/26 03:50:19;;;;;;;3.93;2.30;;;;;20.40;99659.00;;;;2087640;28;20533;-46
2021/12/26 03:51:20;;;;;;;1.80;1.70;;;;;20.40;99656.00;;;;2087720;28;20220;-47
2021/12/26 03:52:22;;;;;;;2.20;2.00;;;;;20.30;99654.00;;;;2087459;28;20224;-47
2021/12/26 03:53:23;;;;;;;2.03;1.83;;;;;20.30;99654.00;;;;2088302;28;20291;-47
2021/12/26 03:54:23;;;;;;;2.20;2.00;;;;;20.30;99665.00;;;;2087905;28;20209;-46
2021/12/26 03:55:25;;;;;;;1.90;1.70;;;;;20.30;99655.00;;;;2083312;28;20252;-47
2021/12/26 03:56:25;;;;;;;3.05;2.13;;;;;20.30;99652.00;;;;2079455;28;20584;-46
2021/12/26 03:57:26;;;;;;;2.47;2.00;;;;;20.30;99656.00;;;;2079712;28;20241;-46
2021/12/26 03:58:26;;;;;;;2.57;2.37;;;;;20.30;99649.00;;;;2079920;28;20209;-46
2021/12/26 03:59:30;;;;;;;2.17;1.97;;;;;20.20;99656.00;;;;2079997;28;20216;-47
2021/12/26 04:00:30;;;;;;;2.40;2.20;;;;;20.30;99649.00;;;;2077369;28;20213;-46
2021/12/26 04:01:31;;;;;;;2.43;2.23;;;;;20.30;99656.00;;;;2079884;28;20697;-46
2021/12/26 04:02:31;;;;;;;2.43;2.00;;;;;20.30;99652.00;;;;2079916;28;20325;-46
2021/12/26 04:03:31;;;;;;;2.20;1.90;;;;;20.30;99655.00;;;;2080044;28;20213;-46
2021/12/26 04:04:32;;;;;;;2.63;2.30;;;;;20.30;99647.00;;;;2080004;28;20218;-46
2021/12/26 04:05:35;;;;;;;2.43;2.20;;;;;20.30;99657.00;;;;2078656;28;20291;-46
2021/12/26 04:06:35;;;;;;;2.10;1.90;;;;;20.30;99650.00;;;;2062970;28;20804;-47
2021/12/26 04:07:35;;;;;;;2.37;2.17;;;;;20.20;99650.00;;;;2071333;28;20217;-46
2021/12/26 04:08:36;;;;;;;2.43;2.23;;;;;20.30;99642.00;;;;2079579;28;20201;-46
2021/12/26 04:09:36;;;;;;;2.30;2.10;;;;;20.30;99643.00;;;;2079987;28;20274;-46
2021/12/26 04:10:37;;;;;;;2.60;2.17;;;;;20.30;99647.00;;;;2078631;28;20236;-47
2021/12/26 04:11:41;;;;;;;3.40;2.20;;;;;20.30;99648.00;;;;2079915;28;20221;-46
2021/12/26 04:12:46;;;;;;;2.60;1.92;;;;;20.30;99641.00;;;;2079785;28;20747;-47
2021/12/26 04:13:46;;;;;;;2.85;2.13;;;;;20.30;99648.00;;;;2079500;28;20237;-46
2021/12/26 04:14:47;;;;;;;2.40;1.83;;;;;20.20;99644.00;;;;2078967;28;20596;-46
2021/12/26 04:15:48;;;;;;;3.30;2.33;;;;;20.20;99652.00;;;;2079029;28;20321;-47
2021/12/26 04:16:48;;;;;;;3.00;2.23;;;;;20.30;99644.00;;;;2078690;28;20915;-47
2021/12/26 04:17:51;;;;;;;2.50;2.30;;;;;20.20;99640.00;;;;2077073;28;20217;-47
2021/12/26 04:18:51;;;;;;;2.00;1.80;;;;;20.20;99643.00;;;;2079510;28;20209;-47
2021/12/26 04:19:51;;;;;;;2.37;2.17;;;;;20.20;99644.00;;;;2079830;28;20206;-47
2021/12/26 04:20:52;;;;;;;2.27;2.03;;;;;20.20;99647.00;;;;2078789;28;20205;-47
2021/12/26 04:21:52;;;;;;;2.10;1.97;;;;;20.20;99640.00;;;;2079818;28;20803;-46
2021/12/26 04:22:52;;;;;;;2.10;1.87;;;;;20.20;99642.00;;;;2079847;28;20208;-47
2021/12/26 04:23:53;;;;;;;3.00;2.10;;;;;20.20;99638.00;;;;2079108;28;20219;-47
2021/12/26 04:24:53;;;;;;;1.90;1.80;;;;;20.20;99637.00;;;;2079018;28;20689;-46
2021/12/26 04:25:53;;;;;;;3.07;2.03;;;;;20.20;99645.00;;;;2078614;28;20226;-47
2021/12/26 04:26:54;;;;;;;2.00;1.80;;;;;20.20;99635.00;;;;2079346;28;20226;-47
2021/12/26 04:27:54;;;;;;;2.00;1.80;;;;;20.20;99635.00;;;;2076927;28;20228;-46
2021/12/26 04:28:55;;;;;;;2.33;1.73;;;;;20.20;99645.00;;;;2079281;28;20866;-47
2021/12/26 04:29:55;;;;;;;2.90;1.97;;;;;20.20;99642.00;;;;2079689;28;20356;-46
2021/12/26 04:30:55;;;;;;;2.00;1.80;;;;;20.20;99641.00;;;;2078209;28;20263;-46
2021/12/26 04:31:56;;;;;;;2.33;2.13;;;;;20.20;99641.00;;;;2079175;28;20490;-46
2021/12/26 04:32:56;;;;;;;2.03;1.83;;;;;20.20;99638.00;;;;2080570;28;20221;-46
2021/12/26 04:33:56;;;;;;;1.90;1.73;;;;;20.20;99638.00;;;;2088179;28;20216;-47
2021/12/26 04:34:57;;;;;;;1.90;1.60;;;;;20.20;99647.00;;;;2087202;28;20536;-47
2021/12/26 04:35:57;;;;;;;2.40;2.20;;;;;20.20;99645.00;;;;2087875;28;20208;-46
2021/12/26 04:36:57;;;;;;;3.00;1.83;;;;;20.10;99640.00;;;;2087346;28;20209;-47
2021/12/26 04:37:58;;;;;;;2.23;2.03;;;;;20.20;99647.00;;;;2086916;28;20242;-46
2021/12/26 04:38:58;;;;;;;2.40;2.03;;;;;20.00;99649.00;;;;2087567;28;20271;-47
2021/12/26 04:39:58;;;;;;;2.87;2.10;;;;;20.10;99645.00;;;;2086488;28;20231;-47
2021/12/26 04:41:00;;;;;;;1.70;1.60;;;;;20.20;99660.00;;;;2086696;28;20293;-46
2021/12/26 04:42:00;;;;;;;2.65;1.92;;;;;20.20;99645.00;;;;2086306;28;20221;-46
2021/12/26 04:43:01;;;;;;;2.00;1.80;;;;;20.20;99642.00;;;;2087539;28;20659;-47
2021/12/26 04:44:01;;;;;;;2.77;2.00;;;;;20.20;99651.00;;;;2087837;28;20443;-46
2021/12/26 04:45:03;;;;;;;1.93;1.57;;;;;20.10;99643.00;;;;2087788;28;20243;-47
2021/12/26 04:46:05;;;;;;;3.65;2.00;;;;;20.20;99643.00;;;;2087581;28;20232;-46
2021/12/26 04:47:06;;;;;;;2.10;1.90;;;;;20.20;99645.00;;;;2087684;28;20205;-46
2021/12/26 04:48:07;;;;;;;1.75;1.65;;;;;20.10;99645.00;;;;2087253;28;20212;-46
2021/12/26 04:49:07;;;;;;;2.90;1.90;;;;;20.10;99648.00;;;;2087185;28;20204;-46
2021/12/26 04:50:12;;;;;;;2.30;1.80;;;;;20.10;99651.00;;;;2087854;28;20764;-46
2021/12/26 04:51:12;;;;;;;2.65;2.17;;;;;20.10;99640.00;;;;2086889;28;20208;-47
2021/12/26 04:52:13;;;;;;;2.20;2.00;;;;;20.10;99639.00;;;;2080354;28;20201;-47
2021/12/26 04:53:14;;;;;;;1.90;1.73;;;;;20.10;99651.00;;;;2087711;28;20621;-46
2021/12/26 04:54:14;;;;;;;2.00;1.80;;;;;20.10;99642.00;;;;2087640;28;20213;-47
2021/12/26 04:55:16;;;;;;;2.20;2.00;;;;;20.10;99647.00;;;;2086981;28;20216;-46
2021/12/26 04:56:17;;;;;;;1.80;1.65;;;;;20.10;99647.00;;;;2087088;28;20299;-46
2021/12/26 04:57:17;;;;;;;2.00;1.73;;;;;20.10;99646.00;;;;2087669;28;20213;-47
2021/12/26 04:58:17;;;;;;;1.73;1.63;;;;;20.10;99650.00;;;;2087776;28;20240;-46
2021/12/26 04:59:18;;;;;;;2.20;2.00;;;;;20.10;99645.00;;;;2085696;28;20223;-46
2021/12/26 05:00:19;;;;;;;2.00;1.90;;;;;20.00;99646.00;;;;2087157;28;20216;-46
2021/12/26 05:01:20;;;;;;;2.28;2.08;;;;;20.10;99642.00;;;;2087188;28;20688;-46
2021/12/26 05:02:20;;;;;;;2.10;1.63;;;;;20.10;99640.00;;;;2087716;28;20224;-46
2021/12/26 05:03:21;;;;;;;1.60;1.50;;;;;20.10;99647.00;;;;2087046;28;20216;-46
2021/12/26 05:04:21;;;;;;;2.17;1.90;;;;;20.10;99641.00;;;;2086867;28;20220;-46
2021/12/26 05:05:22;;;;;;;1.90;1.70;;;;;20.10;99640.00;;;;2087453;28;20474;-47
2021/12/26 05:06:23;;;;;;;1.90;1.70;;;;;20.00;99642.00;;;;2087270;28;20236;-46
2021/12/26 05:07:23;;;;;;;1.90;1.80;;;;;20.00;99643.00;;;;2086397;28;20311;-46
2021/12/26 05:08:24;;;;;;;2.30;2.10;;;;;20.10;99643.00;;;;2086164;28;20482;-47
2021/12/26 05:09:24;;;;;;;1.90;1.70;;;;;20.10;99646.00;;;;2087437;28;20212;-46
2021/12/26 05:10:27;;;;;;;2.60;2.00;;;;;20.00;99639.00;;;;2085423;28;20236;-46
2021/12/26 05:11:28;;;;;;;1.98;1.80;;;;;20.00;99642.00;;;;2086972;28;20228;-47
2021/12/26 05:12:29;;;;;;;2.20;1.50;;;;;20.00;99634.00;;;;2085203;28;20221;-46
2021/12/26 05:13:29;;;;;;;2.40;2.00;;;;;20.00;99632.00;;;;2087171;28;20216;-47